createdAt,value
2023-03-07T00:00:54.361Z,5.47
2023-03-07T00:03:21.049Z,4.85
2023-03-07T00:05:47.613Z,4.28
2023-03-07T00:08:14.122Z,4.47
2023-03-07T00:10:40.646Z,3.75
2023-03-07T00:13:07.200Z,3.67
2023-03-07T00:15:33.673Z,3.58
2023-03-07T00:18:00.171Z,3.17
2023-03-07T00:20:26.654Z,3.43
2023-03-07T00:22:53.156Z,3.35
2023-03-07T00:25:19.700Z,3.20
2023-03-07T00:27:46.147Z,3.10
2023-03-07T00:30:12.700Z,3.47
2023-03-07T00:32:39.373Z,3.40
2023-03-07T00:35:06.475Z,2.90
2023-03-07T00:37:33.005Z,3.10
2023-03-07T00:39:59.472Z,2.78
2023-03-07T00:42:26.046Z,3.22
2023-03-07T00:44:52.527Z,3.00
2023-03-07T00:47:19.049Z,2.97
2023-03-07T00:49:45.516Z,3.40
2023-03-07T00:52:11.980Z,3.40
2023-03-07T00:54:38.428Z,2.80
2023-03-07T00:57:05.021Z,2.80
2023-03-07T00:59:31.567Z,2.90
2023-03-07T01:01:58.018Z,3.40
2023-03-07T01:04:24.531Z,2.70
2023-03-07T01:06:51.031Z,2.90
2023-03-07T01:09:17.499Z,2.77
2023-03-07T01:11:44.015Z,3.20
2023-03-07T01:14:11.298Z,3.10
2023-03-07T01:16:38.620Z,2.88
2023-03-07T01:19:08.077Z,3.65
2023-03-07T01:21:39.811Z,2.37
2023-03-07T01:24:07.597Z,2.65
2023-03-07T01:26:34.783Z,2.40
2023-03-07T01:29:03.517Z,2.40
2023-03-07T01:31:30.589Z,1.98
2023-03-07T01:33:57.239Z,1.70
2023-03-07T01:36:31.222Z,1.92
2023-03-07T01:39:06.238Z,2.10
2023-03-07T01:41:34.182Z,2.10
2023-03-07T01:44:02.740Z,2.00
2023-03-07T01:46:48.380Z,1.80
2023-03-07T01:49:34.060Z,1.95
2023-03-07T01:52:04.139Z,1.83
2023-03-07T01:54:34.233Z,1.77
2023-03-07T01:57:04.509Z,1.55
2023-03-07T01:59:45.615Z,1.10
2023-03-07T02:02:18.432Z,1.27
2023-03-07T02:04:51.081Z,1.25
2023-03-07T02:07:22.203Z,1.02
2023-03-07T02:09:51.311Z,1.15
2023-03-07T02:12:17.787Z,1.03
2023-03-07T02:14:47.701Z,1.38
2023-03-07T02:17:14.562Z,1.05
2023-03-07T02:20:07.422Z,1.05
2023-03-07T02:22:33.883Z,1.20
2023-03-07T02:25:42.570Z,1.00
2023-03-07T02:28:13.126Z,1.15
2023-03-07T02:30:53.051Z,0.75
2023-03-07T02:33:19.544Z,0.70
2023-03-07T02:35:47.311Z,1.05
2023-03-07T02:38:13.822Z,1.00
2023-03-07T02:40:41.200Z,0.90
2023-03-07T02:43:09.698Z,0.98
2023-03-07T02:45:36.326Z,0.95
2023-03-07T02:48:02.872Z,1.05
2023-03-07T02:50:29.357Z,1.00
2023-03-07T02:52:55.893Z,1.20
2023-03-07T02:55:23.271Z,0.70
2023-03-07T02:57:49.844Z,0.80
2023-03-07T03:00:17.393Z,0.95
2023-03-07T03:02:43.871Z,1.20
2023-03-07T03:05:10.402Z,0.98
2023-03-07T03:07:36.925Z,1.20
2023-03-07T03:10:04.107Z,0.80
2023-03-07T03:12:30.612Z,0.95
2023-03-07T03:14:57.087Z,0.93
2023-03-07T03:17:23.992Z,0.80
2023-03-07T03:19:50.561Z,1.40
2023-03-07T03:22:17.107Z,0.88
2023-03-07T03:24:43.674Z,0.80
2023-03-07T03:27:10.552Z,0.83
2023-03-07T03:29:37.077Z,0.80
2023-03-07T03:32:04.034Z,0.90
2023-03-07T03:34:30.536Z,1.00
2023-03-07T03:36:56.993Z,0.95
2023-03-07T03:39:23.594Z,0.80
2023-03-07T03:41:50.079Z,1.05
2023-03-07T03:44:16.544Z,0.80
2023-03-07T03:46:43.127Z,0.82
2023-03-07T03:49:13.364Z,0.90
2023-03-07T03:51:39.892Z,0.70
2023-03-07T03:54:06.404Z,0.88
2023-03-07T03:56:32.877Z,0.90
2023-03-07T03:58:59.428Z,0.68
2023-03-07T04:01:27.870Z,0.80
2023-03-07T04:03:55.312Z,0.90
2023-03-07T04:06:27.266Z,1.23
2023-03-07T04:08:54.847Z,1.00
2023-03-07T04:11:22.668Z,0.90
2023-03-07T04:13:49.229Z,0.90
2023-03-07T04:16:16.895Z,1.30
2023-03-07T04:18:43.805Z,1.20
2023-03-07T04:21:13.575Z,1.00
2023-03-07T04:23:40.175Z,1.23
2023-03-07T04:26:08.388Z,0.80
2023-03-07T04:28:44.195Z,0.90
2023-03-07T04:31:15.325Z,0.88
2023-03-07T04:33:42.786Z,0.82
2023-03-07T04:36:10.648Z,0.80
2023-03-07T04:38:39.088Z,0.80
2023-03-07T04:41:06.831Z,0.80
2023-03-07T04:43:34.476Z,0.85
2023-03-07T04:46:01.412Z,0.80
2023-03-07T04:48:27.980Z,0.60
2023-03-07T04:50:54.533Z,0.70
2023-03-07T04:53:21.683Z,0.93
2023-03-07T04:55:48.249Z,0.80
2023-03-07T04:58:15.249Z,0.77
2023-03-07T05:00:45.722Z,0.70
2023-03-07T05:03:13.630Z,0.68
2023-03-07T05:05:40.366Z,0.70
2023-03-07T05:08:07.247Z,0.63
2023-03-07T05:10:35.272Z,0.40
2023-03-07T05:13:02.272Z,0.65
2023-03-07T05:15:28.825Z,0.43
2023-03-07T05:17:55.387Z,0.40
2023-03-07T05:20:22.015Z,0.70
2023-03-07T05:22:48.488Z,0.68
2023-03-07T05:25:15.210Z,0.20
2023-03-07T05:27:41.736Z,0.35
2023-03-07T05:30:09.228Z,0.20
2023-03-07T05:32:36.057Z,0.50
2023-03-07T05:35:02.746Z,0.25
2023-03-07T05:37:29.200Z,0.28
2023-03-07T05:39:55.673Z,0.40
2023-03-07T05:42:22.170Z,0.20
2023-03-07T05:44:48.661Z,0.17
2023-03-07T05:47:15.312Z,0.22
2023-03-07T05:49:41.918Z,0.20
2023-03-07T05:52:08.392Z,0.10
2023-03-07T05:54:34.827Z,0.27
2023-03-07T05:57:01.251Z,0.32
2023-03-07T05:59:27.758Z,0.38
2023-03-07T06:01:54.248Z,0.30
2023-03-07T06:04:20.723Z,0.30
2023-03-07T06:06:47.169Z,0.10
2023-03-07T06:09:13.699Z,0.10
2023-03-07T06:11:40.173Z,0.20
2023-03-07T06:14:06.631Z,0.20
2023-03-07T06:16:33.120Z,0.20
2023-03-07T06:18:59.571Z,0.40
2023-03-07T06:21:26.141Z,0.10
2023-03-07T06:23:52.595Z,0.30
2023-03-07T06:26:19.308Z,0.10
2023-03-07T06:28:45.817Z,0.30
2023-03-07T06:31:17.817Z,0.20
2023-03-07T06:33:45.111Z,0.22
2023-03-07T06:36:13.956Z,0.20
2023-03-07T06:38:40.754Z,0.20
2023-03-07T06:41:07.846Z,0.40
2023-03-07T06:43:34.881Z,0.20
2023-03-07T06:46:02.002Z,0.20
2023-03-07T06:48:28.500Z,0.20
2023-03-07T06:50:55.036Z,0.40
2023-03-07T06:53:21.618Z,0.40
2023-03-07T06:55:50.577Z,0.20
2023-03-07T06:58:17.582Z,0.30
2023-03-07T07:00:44.934Z,0.28
2023-03-07T07:03:15.414Z,0.30
2023-03-07T07:05:41.961Z,0.22
2023-03-07T07:08:09.210Z,0.60
2023-03-07T07:10:36.767Z,0.50
2023-03-07T07:13:04.558Z,0.38
2023-03-07T07:15:31.800Z,0.50
2023-03-07T07:17:58.336Z,0.70
2023-03-07T07:20:24.852Z,0.30
2023-03-07T07:22:51.371Z,0.32
2023-03-07T07:25:17.933Z,0.50
2023-03-07T07:27:44.409Z,0.70
2023-03-07T07:30:11.388Z,0.73
2023-03-07T07:32:37.986Z,0.60
2023-03-07T07:35:04.988Z,0.70
2023-03-07T07:37:31.463Z,0.40
2023-03-07T07:39:58.566Z,0.55
2023-03-07T07:42:25.114Z,0.60
2023-03-07T07:44:51.578Z,0.70
2023-03-07T07:47:18.028Z,0.70
2023-03-07T07:49:44.531Z,0.70
2023-03-07T07:52:11.023Z,1.08
2023-03-07T07:54:37.603Z,0.90
2023-03-07T07:57:04.325Z,0.77
2023-03-07T07:59:34.098Z,0.70
2023-03-07T08:02:01.654Z,1.63
2023-03-07T08:04:28.512Z,1.50
2023-03-07T08:06:55.196Z,1.73
2023-03-07T08:09:21.739Z,1.97
2023-03-07T08:11:48.503Z,1.90
2023-03-07T08:14:15.065Z,1.98
2023-03-07T08:16:42.139Z,1.48
2023-03-07T08:19:08.821Z,1.60
2023-03-07T08:21:35.309Z,1.20
2023-03-07T08:24:02.523Z,0.93
2023-03-07T08:26:29.079Z,1.25
2023-03-07T08:28:55.803Z,0.98
2023-03-07T08:31:24.492Z,1.05
2023-03-07T08:33:52.115Z,1.20
2023-03-07T08:36:18.956Z,1.00
2023-03-07T08:38:51.573Z,1.13
2023-03-07T08:41:19.347Z,0.95
2023-03-07T08:43:45.885Z,1.02
2023-03-07T08:46:12.326Z,0.93
2023-03-07T08:48:38.855Z,0.98
2023-03-07T08:51:11.543Z,1.17
2023-03-07T08:53:38.150Z,1.10
2023-03-07T08:56:08.982Z,1.00
2023-03-07T08:58:35.577Z,1.00
2023-03-07T09:01:03.497Z,1.40
2023-03-07T09:03:30.002Z,1.30
2023-03-07T09:05:56.486Z,1.20
2023-03-07T09:08:23.001Z,1.08
2023-03-07T09:10:49.584Z,1.13
2023-03-07T09:13:18.315Z,1.40
2023-03-07T09:15:45.412Z,1.45
2023-03-07T09:18:12.436Z,1.20
2023-03-07T09:20:39.378Z,1.42
2023-03-07T09:23:06.782Z,1.10
2023-03-07T09:25:33.646Z,0.88
2023-03-07T09:28:00.481Z,1.40
2023-03-07T09:30:28.401Z,1.20
2023-03-07T09:32:55.718Z,0.90
2023-03-07T09:35:22.604Z,0.93
2023-03-07T09:37:49.634Z,1.13
2023-03-07T09:40:20.775Z,0.93
2023-03-07T09:43:04.125Z,0.70
2023-03-07T09:45:34.419Z,0.88
2023-03-07T09:48:17.793Z,0.93
2023-03-07T09:51:10.364Z,0.95
2023-03-07T09:53:43.174Z,0.90
2023-03-07T09:56:32.436Z,0.90
2023-03-07T09:59:22.021Z,0.90
2023-03-07T10:01:52.327Z,0.60
2023-03-07T10:04:34.289Z,1.00
2023-03-07T10:07:03.924Z,0.95
2023-03-07T10:09:30.623Z,0.63
2023-03-07T10:12:23.791Z,0.98
2023-03-07T10:15:05.570Z,0.50
2023-03-07T10:17:50.128Z,1.48
2023-03-07T10:20:52.010Z,1.20
2023-03-07T10:23:34.948Z,0.73
2023-03-07T10:26:23.534Z,0.85
2023-03-07T10:28:50.773Z,0.70
2023-03-07T10:31:26.502Z,0.70
2023-03-07T10:33:54.496Z,0.50
2023-03-07T10:36:30.117Z,0.45
2023-03-07T10:39:15.028Z,0.80
2023-03-07T10:41:41.497Z,0.43
2023-03-07T10:44:17.711Z,0.80
2023-03-07T10:46:55.250Z,0.57
2023-03-07T10:49:46.487Z,0.60
2023-03-07T10:52:29.043Z,0.50
2023-03-07T10:55:17.115Z,0.47
2023-03-07T10:57:43.604Z,0.50
2023-03-07T11:00:16.352Z,0.52
2023-03-07T11:02:45.787Z,0.45
2023-03-07T11:05:33.490Z,0.40
2023-03-07T11:08:01.392Z,0.33
2023-03-07T11:10:34.300Z,0.50
2023-03-07T11:13:17.789Z,0.60
2023-03-07T11:15:45.215Z,0.32
2023-03-07T11:18:30.553Z,0.70
2023-03-07T11:20:58.027Z,0.47
2023-03-07T11:23:32.740Z,0.40
2023-03-07T11:26:21.573Z,0.30
2023-03-07T11:28:48.154Z,0.20
2023-03-07T11:31:41.543Z,0.20
2023-03-07T11:34:45.752Z,0.30
2023-03-07T11:37:24.425Z,0.17
2023-03-07T11:40:14.158Z,0.22
2023-03-07T11:42:52.057Z,0.20
2023-03-07T11:45:27.695Z,0.20
2023-03-07T11:48:19.207Z,0.23
2023-03-07T11:50:53.980Z,0.25
2023-03-07T11:53:32.413Z,0.20
2023-03-07T11:56:21.430Z,0.20
2023-03-07T11:59:02.803Z,0.30
2023-03-07T12:01:38.287Z,0.20
2023-03-07T12:04:27.911Z,0.20
2023-03-07T12:07:03.716Z,0.30
2023-03-07T12:09:54.427Z,0.30
2023-03-07T12:12:47.023Z,0.20
2023-03-07T12:15:29.985Z,0.30
2023-03-07T12:18:18.212Z,0.40
2023-03-07T12:21:19.552Z,0.20
2023-03-07T12:23:55.105Z,0.20
2023-03-07T12:26:28.551Z,0.10
2023-03-07T12:29:20.642Z,0.10
2023-03-07T12:31:53.160Z,0.20
2023-03-07T12:34:42.500Z,0.20
2023-03-07T12:37:27.997Z,0.10
2023-03-07T12:40:00.680Z,0.10
2023-03-07T12:42:29.947Z,0.10
2023-03-07T12:45:16.395Z,0.20
2023-03-07T12:48:16.507Z,0.20
2023-03-07T12:51:11.328Z,0.10
2023-03-07T12:53:46.618Z,0.30
2023-03-07T12:56:22.169Z,0.27
2023-03-07T12:59:12.755Z,0.65
2023-03-07T13:01:44.022Z,0.30
2023-03-07T13:04:13.196Z,0.15
2023-03-07T13:06:42.208Z,0.20
2023-03-07T13:09:19.995Z,0.20
2023-03-07T13:12:22.520Z,0.10
2023-03-07T13:14:58.147Z,0.20
2023-03-07T13:17:30.359Z,0.28
2023-03-07T13:20:12.048Z,0.20
2023-03-07T13:22:38.462Z,3.17
2023-03-07T13:25:20.366Z,1.63
2023-03-07T13:27:48.403Z,0.95
2023-03-07T13:30:25.204Z,0.73
2023-03-07T13:32:51.715Z,0.20
2023-03-07T13:35:24.470Z,0.40
2023-03-07T13:37:53.538Z,0.13
2023-03-07T13:40:39.626Z,0.38
2023-03-07T13:43:28.010Z,0.55
2023-03-07T13:46:00.115Z,0.30
2023-03-07T13:48:32.629Z,0.20
2023-03-07T13:50:59.119Z,0.30
2023-03-07T13:53:31.272Z,0.28
2023-03-07T13:56:11.041Z,0.70
2023-03-07T13:58:57.910Z,0.20
2023-03-07T14:01:44.220Z,0.30
2023-03-07T14:04:46.338Z,0.43
2023-03-07T14:07:22.352Z,0.30
2023-03-07T14:09:55.869Z,0.30
2023-03-07T14:12:42.207Z,0.20
2023-03-07T14:15:35.090Z,0.30
2023-03-07T14:18:27.681Z,0.30
2023-03-07T14:21:00.898Z,0.30
2023-03-07T14:24:01.394Z,0.73
2023-03-07T14:26:36.978Z,0.30
2023-03-07T14:29:18.926Z,0.20
2023-03-07T14:31:46.971Z,0.10
2023-03-07T14:34:26.721Z,0.30
2023-03-07T14:37:06.600Z,0.20
2023-03-07T14:39:48.067Z,0.20
2023-03-07T14:42:43.722Z,0.20
2023-03-07T14:45:23.898Z,0.20
2023-03-07T14:48:14.936Z,0.43
2023-03-07T14:50:44.296Z,0.28
2023-03-07T14:53:24.946Z,1.02
2023-03-07T14:55:53.988Z,0.20
2023-03-07T14:58:30.738Z,0.25
2023-03-07T15:01:05.486Z,0.30
2023-03-07T15:03:32.540Z,0.20
2023-03-07T15:06:01.007Z,0.20
2023-03-07T15:08:35.123Z,0.30
2023-03-07T15:11:17.818Z,0.20
2023-03-07T15:13:55.072Z,0.20
2023-03-07T15:16:43.752Z,0.20
2023-03-07T15:19:36.697Z,0.20
2023-03-07T15:22:06.406Z,0.20
2023-03-07T15:24:35.726Z,0.10
2023-03-07T15:27:04.494Z,0.20
2023-03-07T15:29:33.000Z,0.20
2023-03-07T15:32:02.610Z,0.20
2023-03-07T15:34:37.744Z,0.20
2023-03-07T15:37:24.949Z,0.20
2023-03-07T15:39:55.229Z,0.30
2023-03-07T15:42:21.750Z,0.38
2023-03-07T15:44:55.250Z,0.20
2023-03-07T15:47:23.503Z,0.20
2023-03-07T15:49:52.613Z,0.20
2023-03-07T15:52:24.967Z,0.20
2023-03-07T15:54:53.947Z,0.10
2023-03-07T15:57:23.964Z,0.20
2023-03-07T16:00:06.122Z,0.20
2023-03-07T16:02:38.474Z,0.20
2023-03-07T16:05:29.189Z,0.32
2023-03-07T16:07:57.480Z,0.30
2023-03-07T16:10:28.426Z,0.22
2023-03-07T16:12:55.544Z,0.30
2023-03-07T16:15:23.899Z,0.20
2023-03-07T16:17:54.967Z,0.30
2023-03-07T16:20:25.948Z,0.35
2023-03-07T16:22:53.035Z,0.40
2023-03-07T16:25:20.743Z,0.30
2023-03-07T16:27:52.616Z,0.40
2023-03-07T16:30:22.732Z,0.68
2023-03-07T16:32:49.261Z,0.50
2023-03-07T16:35:21.322Z,0.50
2023-03-07T16:37:48.118Z,0.40
2023-03-07T16:40:16.051Z,0.50
2023-03-07T16:42:47.679Z,0.43
2023-03-07T16:45:29.783Z,0.40
2023-03-07T16:47:58.817Z,0.50
2023-03-07T16:50:31.850Z,0.80
2023-03-07T16:52:58.443Z,0.55
2023-03-07T16:55:25.705Z,1.00
2023-03-07T16:57:56.020Z,0.40
2023-03-07T17:00:24.653Z,0.60
2023-03-07T17:02:53.468Z,0.70
2023-03-07T17:05:26.433Z,0.80
2023-03-07T17:07:54.288Z,0.75
2023-03-07T17:10:21.629Z,0.75
2023-03-07T17:12:50.155Z,0.45
2023-03-07T17:15:19.532Z,0.80
2023-03-07T17:17:46.428Z,0.60
2023-03-07T17:20:15.913Z,0.70
2023-03-07T17:22:43.028Z,0.65
2023-03-07T17:25:10.616Z,0.40
2023-03-07T17:27:43.052Z,0.60
2023-03-07T17:30:17.548Z,0.57
2023-03-07T17:32:43.999Z,0.50
2023-03-07T17:35:11.568Z,0.50
2023-03-07T17:37:38.090Z,0.43
2023-03-07T17:40:10.728Z,0.60
2023-03-07T17:42:38.061Z,0.20
2023-03-07T17:45:09.009Z,0.30
2023-03-07T17:47:35.857Z,0.20
2023-03-07T17:50:05.424Z,0.20
2023-03-07T17:52:32.837Z,0.30
2023-03-07T17:54:59.956Z,0.20
2023-03-07T17:57:28.120Z,0.35
2023-03-07T17:59:55.432Z,0.30
2023-03-07T18:02:21.952Z,0.30
2023-03-07T18:04:48.473Z,0.23
2023-03-07T18:07:18.210Z,0.30
2023-03-07T18:09:44.721Z,0.55
2023-03-07T18:12:11.205Z,0.30
2023-03-07T18:14:37.663Z,0.47
2023-03-07T18:17:04.168Z,0.50
2023-03-07T18:19:30.777Z,0.90
2023-03-07T18:21:57.301Z,1.20
2023-03-07T18:24:26.661Z,0.70
2023-03-07T18:26:54.484Z,0.70
2023-03-07T18:29:22.358Z,1.17
2023-03-07T18:31:49.046Z,0.60
2023-03-07T18:34:15.732Z,1.10
2023-03-07T18:36:42.975Z,0.98
2023-03-07T18:39:12.640Z,0.47
2023-03-07T18:41:39.448Z,0.33
2023-03-07T18:44:06.043Z,0.28
2023-03-07T18:46:32.961Z,0.80
2023-03-07T18:49:00.711Z,0.60
2023-03-07T18:51:27.759Z,0.70
2023-03-07T18:53:59.427Z,0.80
2023-03-07T18:56:26.518Z,0.50
2023-03-07T18:58:58.843Z,0.40
2023-03-07T19:01:30.633Z,0.63
2023-03-07T19:04:01.314Z,0.70
2023-03-07T19:06:35.922Z,0.80
2023-03-07T19:09:03.799Z,0.90
2023-03-07T19:11:31.257Z,0.60
2023-03-07T19:13:58.391Z,0.70
2023-03-07T19:16:28.182Z,1.10
2023-03-07T19:18:55.351Z,0.90
2023-03-07T19:21:24.595Z,1.20
2023-03-07T19:23:52.708Z,1.48
2023-03-07T19:26:20.407Z,1.33
2023-03-07T19:28:49.729Z,1.70
2023-03-07T19:31:17.505Z,1.30
2023-03-07T19:33:45.808Z,1.20
2023-03-07T19:36:21.149Z,1.20
2023-03-07T19:38:49.447Z,1.17
2023-03-07T19:41:18.462Z,0.85
2023-03-07T19:43:45.009Z,1.10
2023-03-07T19:46:13.552Z,1.17
2023-03-07T19:48:40.924Z,1.58
2023-03-07T19:51:15.420Z,3.10
2023-03-07T19:53:42.945Z,2.80
2023-03-07T19:56:27.398Z,1.80
2023-03-07T19:58:54.925Z,1.92
2023-03-07T20:01:22.232Z,1.52
2023-03-07T20:03:49.042Z,1.70
2023-03-07T20:06:19.837Z,1.48
2023-03-07T20:08:51.038Z,1.60
2023-03-07T20:11:27.417Z,1.80
2023-03-07T20:13:55.947Z,1.38
2023-03-07T20:16:23.645Z,1.08
2023-03-07T20:18:51.492Z,0.82
2023-03-07T20:21:19.549Z,1.10
2023-03-07T20:23:48.239Z,1.33
2023-03-07T20:26:18.480Z,1.20
2023-03-07T20:28:45.330Z,1.42
2023-03-07T20:31:12.776Z,1.30
2023-03-07T20:33:45.422Z,1.20
2023-03-07T20:36:18.870Z,1.48
2023-03-07T20:38:55.593Z,1.95
2023-03-07T20:41:24.958Z,1.40
2023-03-07T20:43:53.127Z,1.48
2023-03-07T20:46:21.753Z,1.10
2023-03-07T20:48:50.269Z,1.35
2023-03-07T20:51:20.225Z,1.30
2023-03-07T20:53:52.808Z,1.40
2023-03-07T20:56:20.579Z,1.33
2023-03-07T20:58:47.567Z,1.20
2023-03-07T21:01:18.726Z,1.50
2023-03-07T21:03:45.889Z,1.65
2023-03-07T21:06:12.380Z,1.20
2023-03-07T21:08:38.922Z,1.20
2023-03-07T21:11:09.599Z,0.90
2023-03-07T21:13:38.967Z,1.20
2023-03-07T21:16:09.047Z,1.05
2023-03-07T21:18:36.202Z,1.00
2023-03-07T21:21:08.251Z,1.27
2023-03-07T21:23:35.005Z,1.00
2023-03-07T21:26:07.791Z,1.40
2023-03-07T21:28:35.289Z,0.90
2023-03-07T21:31:04.607Z,1.05
2023-03-07T21:33:32.239Z,1.00
2023-03-07T21:35:59.193Z,0.80
2023-03-07T21:38:25.795Z,0.90
2023-03-07T21:40:54.316Z,1.10
2023-03-07T21:43:21.524Z,0.70
2023-03-07T21:45:48.221Z,0.82
2023-03-07T21:48:16.925Z,0.73
2023-03-07T21:50:44.501Z,0.70
2023-03-07T21:53:11.830Z,0.77
2023-03-07T21:55:39.120Z,0.70
2023-03-07T21:58:05.883Z,0.70
2023-03-07T22:00:32.502Z,0.50
2023-03-07T22:02:59.000Z,1.02
2023-03-07T22:05:25.533Z,0.70
2023-03-07T22:07:52.209Z,0.70
2023-03-07T22:10:19.467Z,0.50
2023-03-07T22:12:45.969Z,0.80
2023-03-07T22:15:12.645Z,0.65
2023-03-07T22:17:39.129Z,0.95
2023-03-07T22:20:06.129Z,0.80
2023-03-07T22:22:32.651Z,0.68
2023-03-07T22:24:59.137Z,0.70
2023-03-07T22:27:25.763Z,0.63
2023-03-07T22:29:52.348Z,0.63
2023-03-07T22:32:18.879Z,0.70
2023-03-07T22:34:45.399Z,0.82
2023-03-07T22:37:12.412Z,0.93
2023-03-07T22:39:38.990Z,0.63
2023-03-07T22:42:05.603Z,0.70
2023-03-07T22:44:32.125Z,1.95
2023-03-07T22:46:58.706Z,0.93
2023-03-07T22:49:26.863Z,0.50
2023-03-07T22:51:54.151Z,0.75
2023-03-07T22:54:20.617Z,0.85
2023-03-07T22:56:47.351Z,0.70
2023-03-07T22:59:13.815Z,0.88
2023-03-07T23:01:40.299Z,0.93
2023-03-07T23:04:09.168Z,0.60
2023-03-07T23:06:36.862Z,0.93
2023-03-07T23:09:06.360Z,0.85
2023-03-07T23:11:34.247Z,0.90
2023-03-07T23:14:00.780Z,0.70
2023-03-07T23:16:29.594Z,1.00
2023-03-07T23:18:58.346Z,0.80
2023-03-07T23:21:29.072Z,0.52
2023-03-07T23:23:56.085Z,0.85
2023-03-07T23:26:42.855Z,0.70
2023-03-07T23:29:11.592Z,0.65
2023-03-07T23:31:40.139Z,0.60
2023-03-07T23:34:16.971Z,0.50
2023-03-07T23:36:43.963Z,0.63
2023-03-07T23:39:10.827Z,0.70
2023-03-07T23:41:37.351Z,0.40
2023-03-07T23:44:04.262Z,0.60
2023-03-07T23:46:31.439Z,0.47
2023-03-07T23:48:58.292Z,0.57
2023-03-07T23:51:25.300Z,0.50
2023-03-07T23:53:52.077Z,0.80
2023-03-07T23:56:18.654Z,0.57
2023-03-07T23:58:49.202Z,0.60
